createdAt,value
2023-08-29T00:00:33.710Z,9.00
2023-08-29T00:03:40.075Z,8.60
2023-08-29T00:06:46.732Z,9.00
2023-08-29T00:09:55.104Z,8.80
2023-08-29T00:13:01.908Z,9.00
2023-08-29T00:16:08.443Z,8.50
2023-08-29T00:19:16.665Z,8.30
2023-08-29T00:22:23.825Z,8.80
2023-08-29T00:25:30.598Z,9.20
2023-08-29T00:28:36.986Z,8.40
2023-08-29T00:31:43.372Z,8.20
2023-08-29T00:34:50.058Z,7.50
2023-08-29T00:37:57.005Z,7.80
2023-08-29T00:41:03.692Z,7.80
2023-08-29T00:44:10.302Z,8.30
2023-08-29T00:47:16.707Z,7.80
2023-08-29T00:50:27.158Z,8.40
2023-08-29T00:53:33.936Z,8.00
2023-08-29T00:56:40.908Z,7.90
2023-08-29T00:59:47.062Z,8.10
2023-08-29T01:02:53.559Z,8.00
2023-08-29T01:05:59.621Z,7.80
2023-08-29T01:09:07.822Z,8.20
2023-08-29T01:12:18.689Z,8.60
2023-08-29T01:15:26.597Z,8.40
2023-08-29T01:18:34.899Z,8.40
2023-08-29T01:21:50.037Z,8.10
2023-08-29T01:25:02.639Z,8.50
2023-08-29T01:28:09.596Z,8.40
2023-08-29T01:31:16.732Z,8.40
2023-08-29T01:34:24.041Z,8.30
2023-08-29T01:37:30.742Z,8.00
2023-08-29T01:40:38.371Z,7.70
2023-08-29T01:43:46.509Z,8.60
2023-08-29T01:46:53.291Z,8.30
2023-08-29T01:50:00.482Z,7.80
2023-08-29T01:53:07.425Z,8.40
2023-08-29T01:56:15.854Z,8.30
2023-08-29T01:59:23.216Z,8.30
2023-08-29T02:02:29.976Z,9.00
2023-08-29T02:05:36.903Z,8.60
2023-08-29T02:08:43.846Z,8.50
2023-08-29T02:11:51.533Z,8.10
2023-08-29T02:14:57.755Z,8.50
2023-08-29T02:18:04.594Z,8.30
2023-08-29T02:21:11.902Z,8.10
2023-08-29T02:24:19.959Z,7.80
2023-08-29T02:27:27.048Z,7.60
2023-08-29T02:30:37.209Z,8.10
2023-08-29T02:33:44.561Z,7.80
2023-08-29T02:36:51.506Z,8.00
2023-08-29T02:39:58.296Z,6.90
2023-08-29T02:43:05.179Z,6.60
2023-08-29T02:46:12.048Z,7.50
2023-08-29T02:49:19.989Z,6.90
2023-08-29T02:52:26.627Z,6.30
2023-08-29T02:55:33.401Z,6.50
2023-08-29T02:58:39.988Z,6.90
2023-08-29T03:01:47.272Z,6.50
2023-08-29T03:04:55.966Z,6.60
2023-08-29T03:08:03.764Z,6.50
2023-08-29T03:11:10.963Z,6.40
2023-08-29T03:14:18.023Z,6.30
2023-08-29T03:17:25.320Z,6.10
2023-08-29T03:20:31.708Z,6.40
2023-08-29T03:23:38.554Z,6.20
2023-08-29T03:26:44.912Z,6.00
2023-08-29T03:29:55.451Z,6.40
2023-08-29T03:33:02.925Z,6.80
2023-08-29T03:36:09.996Z,5.70
2023-08-29T03:39:16.558Z,5.60
2023-08-29T03:42:23.214Z,6.10
2023-08-29T03:45:29.923Z,6.40
2023-08-29T03:48:37.398Z,6.20
2023-08-29T03:51:44.154Z,6.30
2023-08-29T03:54:51.184Z,5.80
2023-08-29T03:57:57.999Z,5.90
2023-08-29T04:01:05.261Z,6.20
2023-08-29T04:04:12.392Z,5.30
2023-08-29T04:07:19.133Z,6.20
2023-08-29T04:10:25.310Z,6.00
2023-08-29T04:13:31.782Z,5.90
2023-08-29T04:16:38.113Z,6.20
2023-08-29T04:19:44.447Z,6.10
2023-08-29T04:22:51.391Z,5.90
2023-08-29T04:26:02.586Z,5.90
2023-08-29T04:29:09.009Z,5.80
2023-08-29T04:32:15.197Z,5.80
2023-08-29T04:35:21.688Z,6.20
2023-08-29T04:38:27.857Z,6.20
2023-08-29T04:41:34.144Z,6.70
2023-08-29T04:44:40.814Z,6.00
2023-08-29T04:47:48.375Z,6.70
2023-08-29T04:50:54.930Z,6.70
2023-08-29T04:54:01.092Z,6.10
2023-08-29T04:57:07.431Z,6.60
2023-08-29T05:00:16.145Z,6.70
2023-08-29T05:03:22.473Z,6.90
2023-08-29T05:06:29.006Z,6.90
2023-08-29T05:09:35.346Z,6.60
2023-08-29T05:12:42.435Z,6.60
2023-08-29T05:15:48.643Z,6.70
2023-08-29T05:18:56.598Z,6.90
2023-08-29T05:22:02.706Z,7.30
2023-08-29T05:25:09.991Z,6.20
2023-08-29T05:28:16.118Z,6.30
2023-08-29T05:31:22.599Z,6.40
2023-08-29T05:34:29.385Z,6.40
2023-08-29T05:37:35.570Z,7.00
2023-08-29T05:40:41.777Z,6.70
2023-08-29T05:43:47.959Z,7.10
2023-08-29T05:46:54.502Z,6.90
2023-08-29T05:50:00.766Z,6.50
2023-08-29T05:53:07.860Z,7.50
2023-08-29T05:56:14.163Z,7.80
2023-08-29T05:59:20.253Z,8.00
2023-08-29T06:02:26.549Z,8.10
2023-08-29T06:05:33.178Z,7.90
2023-08-29T06:08:41.552Z,8.50
2023-08-29T06:11:47.697Z,7.70
2023-08-29T06:14:54.660Z,8.10
2023-08-29T06:18:00.882Z,8.40
2023-08-29T06:21:07.210Z,8.00
2023-08-29T06:24:15.929Z,8.20
2023-08-29T06:27:22.053Z,8.60
2023-08-29T06:30:28.471Z,9.00
2023-08-29T06:33:35.519Z,8.80
2023-08-29T06:36:42.865Z,9.00
2023-08-29T06:39:49.424Z,8.90
2023-08-29T06:42:55.521Z,9.00
2023-08-29T06:46:01.939Z,9.00
2023-08-29T06:49:09.082Z,9.30
2023-08-29T06:52:15.848Z,8.80
2023-08-29T06:55:21.912Z,8.90
2023-08-29T06:58:28.350Z,7.90
2023-08-29T07:01:34.369Z,7.70
2023-08-29T07:04:40.695Z,7.60
2023-08-29T07:07:47.272Z,7.30
2023-08-29T07:10:54.212Z,7.50
2023-08-29T07:14:00.888Z,7.20
2023-08-29T07:17:10.354Z,6.10
2023-08-29T07:20:17.411Z,6.10
2023-08-29T07:23:23.914Z,5.60
2023-08-29T07:26:30.141Z,6.60
2023-08-29T07:29:36.432Z,6.30
2023-08-29T07:32:42.896Z,6.20
2023-08-29T07:35:50.832Z,6.20
2023-08-29T07:38:58.137Z,6.50
2023-08-29T07:42:04.841Z,6.30
2023-08-29T07:45:13.492Z,6.80
2023-08-29T07:48:20.301Z,6.60
2023-08-29T07:51:26.682Z,6.60
2023-08-29T07:54:32.993Z,6.50
2023-08-29T07:57:39.435Z,6.70
2023-08-29T08:00:46.027Z,6.70
2023-08-29T08:03:52.834Z,7.00
2023-08-29T08:06:59.663Z,7.70
2023-08-29T08:10:09.006Z,6.80
2023-08-29T08:13:15.612Z,6.70
2023-08-29T08:16:22.789Z,6.80
2023-08-29T08:19:31.009Z,7.00
2023-08-29T08:22:37.629Z,6.40
2023-08-29T08:25:44.259Z,6.60
2023-08-29T08:28:50.809Z,6.40
2023-08-29T08:31:57.191Z,6.60
2023-08-29T08:35:07.749Z,6.00
2023-08-29T08:38:14.811Z,6.40
2023-08-29T08:41:22.507Z,5.80
2023-08-29T08:44:29.447Z,6.20
2023-08-29T08:47:36.889Z,5.90
2023-08-29T08:50:43.593Z,6.10
2023-08-29T08:53:51.013Z,6.10
2023-08-29T08:56:59.291Z,6.60
2023-08-29T09:00:07.724Z,6.10
2023-08-29T09:03:15.339Z,5.90
2023-08-29T09:06:21.779Z,6.00
2023-08-29T09:09:28.638Z,6.20
2023-08-29T09:12:34.888Z,6.30
2023-08-29T09:15:42.087Z,6.40
2023-08-29T09:18:51.962Z,6.00
2023-08-29T09:21:58.273Z,6.10
2023-08-29T09:25:07.360Z,6.30
2023-08-29T09:28:15.149Z,5.80
2023-08-29T09:31:21.975Z,6.10
2023-08-29T09:34:33.230Z,6.40
2023-08-29T09:37:46.460Z,6.20
2023-08-29T09:40:55.894Z,6.60
2023-08-29T09:44:02.087Z,7.00
2023-08-29T09:47:09.133Z,7.40
2023-08-29T09:50:15.227Z,6.90
2023-08-29T09:53:22.596Z,7.10
2023-08-29T09:56:30.585Z,6.90
2023-08-29T09:59:39.926Z,7.00
2023-08-29T10:02:48.016Z,7.20
2023-08-29T10:05:55.543Z,7.70
2023-08-29T10:09:04.734Z,7.70
2023-08-29T10:12:11.716Z,7.70
2023-08-29T10:15:17.776Z,8.20
2023-08-29T10:18:25.886Z,7.70
2023-08-29T10:21:32.619Z,7.10
2023-08-29T10:24:39.810Z,7.40
2023-08-29T10:27:46.272Z,7.70
2023-08-29T10:30:55.869Z,7.40
2023-08-29T10:34:02.675Z,7.90
2023-08-29T10:37:10.236Z,7.70
2023-08-29T10:40:18.697Z,7.40
2023-08-29T10:43:28.961Z,7.20
2023-08-29T10:46:37.096Z,8.10
2023-08-29T10:49:46.486Z,7.80
2023-08-29T10:52:56.162Z,8.50
2023-08-29T10:56:05.734Z,7.90
2023-08-29T11:02:31.609Z,7.80
2023-08-29T11:05:41.309Z,8.20
2023-08-29T11:08:47.673Z,8.20
2023-08-29T11:12:14.662Z,8.20
2023-08-29T11:15:21.424Z,6.70
2023-08-29T11:18:33.878Z,7.20
2023-08-29T11:21:41.661Z,7.00
2023-08-29T11:24:53.144Z,6.10
2023-08-29T11:27:59.368Z,5.60
2023-08-29T11:31:06.757Z,5.80
2023-08-29T11:34:22.179Z,5.70
2023-08-29T11:37:33.967Z,5.20
2023-08-29T11:40:45.440Z,4.70
2023-08-29T11:45:11.059Z,4.90
2023-08-29T11:47:33.963Z,5.00
2023-08-29T11:50:42.771Z,4.60
2023-08-29T11:53:49.568Z,4.50
2023-08-29T11:56:59.468Z,4.50
2023-08-29T12:00:09.370Z,4.30
2023-08-29T12:03:15.812Z,4.60
2023-08-29T12:06:22.505Z,4.60
2023-08-29T12:09:29.084Z,4.10
2023-08-29T12:12:37.501Z,3.80
2023-08-29T12:15:44.777Z,4.00
2023-08-29T12:18:52.710Z,3.80
2023-08-29T12:22:00.143Z,4.00
2023-08-29T12:25:07.539Z,3.90
2023-08-29T12:28:14.542Z,3.80
2023-08-29T12:31:22.406Z,4.00
2023-08-29T12:34:30.352Z,3.70
2023-08-29T12:37:36.833Z,3.70
2023-08-29T12:40:44.376Z,3.60
2023-08-29T12:43:52.062Z,3.70
2023-08-29T12:46:58.597Z,3.90
2023-08-29T12:50:05.795Z,4.20
2023-08-29T12:53:12.853Z,4.30
2023-08-29T12:56:19.690Z,3.90
2023-08-29T12:59:26.435Z,3.70
2023-08-29T13:02:33.851Z,3.90
2023-08-29T13:05:43.395Z,4.10
2023-08-29T13:08:50.588Z,4.20
2023-08-29T13:11:57.207Z,4.30
2023-08-29T13:15:06.673Z,4.70
2023-08-29T13:18:13.567Z,3.50
2023-08-29T13:21:22.689Z,4.10
2023-08-29T13:24:29.588Z,4.50
2023-08-29T13:27:37.220Z,4.50
2023-08-29T13:30:43.658Z,4.60
2023-08-29T13:33:50.697Z,4.60
2023-08-29T13:36:57.038Z,4.70
2023-08-29T13:40:06.533Z,4.70
2023-08-29T13:43:13.003Z,4.20
2023-08-29T13:46:19.911Z,3.60
2023-08-29T13:49:26.245Z,3.90
2023-08-29T13:52:35.906Z,4.20
2023-08-29T13:55:45.012Z,4.00
2023-08-29T13:58:54.594Z,3.90
2023-08-29T14:02:10.511Z,4.40
2023-08-29T14:05:20.056Z,3.80
2023-08-29T14:08:28.800Z,4.60
2023-08-29T14:11:39.770Z,4.00
2023-08-29T14:14:50.698Z,4.50
2023-08-29T14:18:01.339Z,4.60
2023-08-29T14:21:11.101Z,4.30
2023-08-29T14:24:20.593Z,4.50
2023-08-29T14:27:29.635Z,4.00
2023-08-29T14:30:44.101Z,4.10
2023-08-29T14:33:55.577Z,4.10
2023-08-29T14:37:06.716Z,4.40
2023-08-29T14:40:16.597Z,4.20
2023-08-29T14:43:25.897Z,4.40
2023-08-29T14:46:35.578Z,4.30
2023-08-29T14:49:44.820Z,4.30
2023-08-29T14:52:54.627Z,4.50
2023-08-29T14:56:04.671Z,4.50
2023-08-29T14:59:14.003Z,4.90
2023-08-29T15:02:24.017Z,4.70
2023-08-29T15:05:33.414Z,5.00
2023-08-29T15:08:43.343Z,4.80
2023-08-29T15:11:52.884Z,4.90
2023-08-29T15:15:02.690Z,4.50
2023-08-29T15:18:13.900Z,4.60
2023-08-29T15:21:22.667Z,5.00
2023-08-29T15:24:31.843Z,4.80
2023-08-29T15:27:40.858Z,4.80
2023-08-29T15:30:49.845Z,5.20
2023-08-29T15:34:02.527Z,5.70
2023-08-29T15:37:12.755Z,5.20
2023-08-29T15:40:29.106Z,5.30
2023-08-29T15:43:38.748Z,4.90
2023-08-29T15:46:50.515Z,5.20
2023-08-29T15:50:01.206Z,5.10
2023-08-29T15:57:17.541Z,5.20
2023-08-29T16:05:35.369Z,5.50
2023-08-29T16:08:52.328Z,5.70
2023-08-29T16:11:58.903Z,5.20
2023-08-29T16:15:05.531Z,5.30
2023-08-29T16:18:12.052Z,5.30
2023-08-29T16:21:18.722Z,5.20
2023-08-29T16:24:25.154Z,5.10
2023-08-29T16:31:35.703Z,5.40
2023-08-29T16:35:03.642Z,5.20
2023-08-29T16:38:21.084Z,5.60
2023-08-29T16:41:36.969Z,5.30
2023-08-29T16:44:57.047Z,5.50
2023-08-29T16:48:18.006Z,5.60
2023-08-29T16:51:35.006Z,5.60
2023-08-29T16:54:55.866Z,5.60
2023-08-29T16:58:07.079Z,5.30
2023-08-29T17:01:39.490Z,5.80
2023-08-29T17:05:31.460Z,5.70
2023-08-29T17:08:48.348Z,5.40
2023-08-29T17:11:58.437Z,5.80
2023-08-29T17:15:07.169Z,5.50
2023-08-29T17:18:13.949Z,6.10
2023-08-29T17:21:20.316Z,6.20
2023-08-29T17:24:26.963Z,5.80
2023-08-29T17:27:33.291Z,6.20
2023-08-29T17:30:39.933Z,5.80
2023-08-29T17:33:46.869Z,5.70
2023-08-29T17:36:53.465Z,6.10
2023-08-29T17:39:59.845Z,5.70
2023-08-29T17:43:06.378Z,5.50
2023-08-29T17:46:12.706Z,6.30
2023-08-29T17:49:19.807Z,5.90
2023-08-29T17:52:26.032Z,5.50
2023-08-29T17:55:32.254Z,5.50
2023-08-29T18:02:09.075Z,5.80
2023-08-29T18:05:47.037Z,5.40
2023-08-29T18:09:41.350Z,5.60
2023-08-29T18:13:22.553Z,5.70
2023-08-29T18:16:45.053Z,5.70
2023-08-29T18:20:36.385Z,6.00
2023-08-29T18:24:01.614Z,6.00
2023-08-29T18:27:29.167Z,5.90
2023-08-29T18:31:27.346Z,6.10
2023-08-29T18:35:25.554Z,6.30
2023-08-29T18:38:32.909Z,6.20
2023-08-29T18:41:39.953Z,6.40
2023-08-29T18:44:46.031Z,6.00
2023-08-29T18:47:52.674Z,6.20
2023-08-29T18:50:59.174Z,6.20
2023-08-29T18:54:05.696Z,5.80
2023-08-29T18:57:12.461Z,6.00
2023-08-29T19:00:20.773Z,6.00
2023-08-29T19:03:27.121Z,6.40
2023-08-29T19:06:33.433Z,5.00
2023-08-29T19:09:40.026Z,2.70
2023-08-29T19:12:48.174Z,2.30
2023-08-29T19:15:56.091Z,2.20
2023-08-29T19:19:05.356Z,2.00
2023-08-29T19:22:12.819Z,2.40
2023-08-29T19:25:21.053Z,2.50
2023-08-29T19:28:27.519Z,2.00
2023-08-29T19:31:33.764Z,2.30
2023-08-29T19:34:40.025Z,2.00
2023-08-29T19:37:46.544Z,2.20
2023-08-29T19:40:53.791Z,2.50
2023-08-29T19:44:00.918Z,2.30
2023-08-29T19:47:07.652Z,1.90
2023-08-29T19:50:16.601Z,2.30
2023-08-29T19:53:24.072Z,2.10
2023-08-29T19:56:30.428Z,2.10
2023-08-29T19:59:47.932Z,2.50
2023-08-29T20:02:55.935Z,4.00
2023-08-29T20:06:02.724Z,3.90
2023-08-29T20:09:12.762Z,2.40
2023-08-29T20:12:23.758Z,2.00
2023-08-29T20:15:37.188Z,2.10
2023-08-29T20:18:43.880Z,2.10
2023-08-29T20:21:52.948Z,2.10
2023-08-29T20:24:59.659Z,1.90
2023-08-29T20:28:09.060Z,1.80
2023-08-29T20:31:17.396Z,1.90
2023-08-29T20:34:25.916Z,1.70
2023-08-29T20:38:02.131Z,1.70
2023-08-29T20:41:14.801Z,1.60
2023-08-29T20:44:24.522Z,1.80
2023-08-29T20:50:36.768Z,1.80
2023-08-29T20:53:45.179Z,2.00
2023-08-29T20:56:54.118Z,1.70
2023-08-29T21:00:00.559Z,2.00
2023-08-29T21:03:09.113Z,1.80
2023-08-29T21:06:17.018Z,1.90
2023-08-29T21:09:26.578Z,1.80
2023-08-29T21:12:35.796Z,1.90
2023-08-29T21:15:45.645Z,1.80
2023-08-29T21:18:53.181Z,2.10
2023-08-29T21:22:01.384Z,2.00
2023-08-29T21:25:11.183Z,2.30
2023-08-29T21:28:19.513Z,2.40
2023-08-29T21:31:32.356Z,2.90
2023-08-29T21:34:41.133Z,3.20
2023-08-29T21:37:48.234Z,3.40
2023-08-29T21:41:04.276Z,3.60
2023-08-29T21:44:13.896Z,3.30
2023-08-29T21:50:28.871Z,3.90
2023-08-29T21:53:35.657Z,4.40
2023-08-29T21:56:44.428Z,4.30
2023-08-29T21:59:54.211Z,4.80
2023-08-29T22:03:01.800Z,5.00
2023-08-29T22:06:08.906Z,4.90
2023-08-29T22:09:16.189Z,5.00
2023-08-29T22:12:23.020Z,5.50
2023-08-29T22:15:30.267Z,5.50
2023-08-29T22:18:37.569Z,5.80
2023-08-29T22:21:44.749Z,5.60
2023-08-29T22:24:52.218Z,6.10
2023-08-29T22:27:58.939Z,6.00
2023-08-29T22:31:06.912Z,6.10
2023-08-29T22:34:13.629Z,6.20
2023-08-29T22:37:24.830Z,6.30
2023-08-29T22:40:32.395Z,7.00
2023-08-29T22:43:39.217Z,7.30
2023-08-29T22:46:45.932Z,7.20
2023-08-29T22:49:55.949Z,8.20
2023-08-29T22:53:05.549Z,8.00
2023-08-29T22:57:09.476Z,7.80
2023-08-29T23:04:25.677Z,8.40
2023-08-29T23:08:01.246Z,7.80
2023-08-29T23:11:20.818Z,8.30
2023-08-29T23:14:47.077Z,8.80
2023-08-29T23:22:21.335Z,8.90
2023-08-29T23:25:48.081Z,9.20
2023-08-29T23:29:21.084Z,9.30
2023-08-29T23:32:54.691Z,9.30
2023-08-29T23:36:27.080Z,10.30
2023-08-29T23:39:54.156Z,9.90
2023-08-29T23:43:14.420Z,10.00
2023-08-29T23:46:33.306Z,9.40
2023-08-29T23:49:52.944Z,10.40
2023-08-29T23:53:00.316Z,10.40
2023-08-29T23:56:06.745Z,10.60
2023-08-29T23:59:13.136Z,10.20
